Time;durP1;ratioP1;P1;durP2;ratioP2;P2;SDS_P1;SDS_P2;PMS_P1;PMS_P2;Temp;Humidity;BMP_temperature;BMP_pressure;BME280_temperature;BME280_humidity;BME280_pressure;Samples;Min_cycle;Max_cycle;Signal;HPM_P1;HPM_P2
2021/12/19 00:02:09;;;;;;;37.67;24.52;;;6.70;99.90;;;;;;5053193;28;20174;-66
2021/12/19 00:04:54;;;;;;;36.88;23.63;;;6.80;99.90;;;;;;5053320;28;20330;-67
2021/12/19 00:10:04;;;;;;;43.72;23.35;;;6.80;99.90;;;;;;5052983;28;20246;-66
2021/12/19 00:12:30;;;;;;;39.58;21.88;;;6.80;99.90;;;;;;5051949;28;20186;-67
2021/12/19 00:14:55;;;;;;;42.35;25.55;;;6.80;99.90;;;;;;5052996;28;20185;-67
2021/12/19 00:17:21;;;;;;;37.88;23.40;;;6.80;99.90;;;;;;5053179;28;20178;-67
2021/12/19 00:19:47;;;;;;;35.85;23.17;;;6.90;99.90;;;;;;5053104;28;20183;-67
2021/12/19 00:22:13;;;;;;;35.75;22.80;;;6.80;99.90;;;;;;5053044;28;20504;-66
2021/12/19 00:24:38;;;;;;;32.45;21.15;;;6.80;99.90;;;;;;5053024;28;20265;-66
2021/12/19 00:27:04;;;;;;;30.73;21.45;;;6.80;99.90;;;;;;5055336;28;20655;-66
2021/12/19 00:29:30;;;;;;;32.33;21.15;;;6.70;99.90;;;;;;5056867;28;20221;-66
2021/12/19 00:31:55;;;;;;;31.75;19.90;;;6.70;99.90;;;;;;5056590;28;20174;-67
2021/12/19 00:34:21;;;;;;;30.80;20.80;;;6.80;99.90;;;;;;5056739;28;20182;-67
2021/12/19 00:36:47;;;;;;;19.00;12.90;;;6.80;99.90;;;;;;5056792;28;20178;-67
2021/12/19 00:39:13;;;;;;;30.45;18.27;;;6.80;99.90;;;;;;5055511;28;20237;-66
2021/12/19 00:41:39;;;;;;;25.60;17.75;;;6.80;99.90;;;;;;5056716;28;20257;-66
2021/12/19 00:44:14;;;;;;;29.60;19.63;;;6.80;99.90;;;;;;5056683;28;20263;-67
2021/12/19 00:46:49;;;;;;;27.60;17.35;;;6.80;99.90;;;;;;5056805;28;20261;-67
2021/12/19 00:49:17;;;;;;;28.58;18.52;;;6.80;99.90;;;;;;5056500;28;20217;-67
2021/12/19 00:51:43;;;;;;;31.73;17.88;;;6.90;99.90;;;;;;5056554;28;20175;-67
2021/12/19 00:54:09;;;;;;;36.13;22.55;;;6.90;99.90;;;;;;5056472;28;20221;-67
2021/12/19 00:56:37;;;;;;;29.88;21.27;;;6.90;99.90;;;;;;5056402;28;20216;-67
2021/12/19 00:59:03;;;;;;;35.53;21.38;;;6.80;99.90;;;;;;5055106;28;20179;-66
2021/12/19 01:01:28;;;;;;;31.63;18.27;;;6.80;99.90;;;;;;5056308;28;20679;-67
2021/12/19 01:03:54;;;;;;;30.90;19.70;;;6.90;99.90;;;;;;5056246;28;20621;-67
2021/12/19 01:06:20;;;;;;;32.53;20.95;;;6.70;99.90;;;;;;5056225;28;20174;-67
2021/12/19 01:08:47;;;;;;;27.88;19.10;;;6.70;99.90;;;;;;5056101;28;20272;-67
2021/12/19 01:11:13;;;;;;;29.70;19.80;;;6.80;99.90;;;;;;5056175;28;20228;-67
2021/12/19 01:13:38;;;;;;;32.80;20.73;;;6.90;99.90;;;;;;5056180;28;20170;-67
2021/12/19 01:16:04;;;;;;;34.83;18.20;;;6.90;99.90;;;;;;5055989;28;20556;-67
2021/12/19 01:18:30;;;;;;;32.75;21.20;;;6.90;99.90;;;;;;5056060;28;20198;-66
2021/12/19 01:20:56;;;;;;;27.83;19.73;;;6.90;99.90;;;;;;5056298;28;20186;-64
2021/12/19 01:23:22;;;;;;;28.52;19.98;;;7.00;99.90;;;;;;5056228;28;20226;-67
2021/12/19 01:25:49;;;;;;;30.60;18.90;;;7.00;99.90;;;;;;5055887;28;20178;-65
2021/12/19 01:28:15;;;;;;;27.77;19.23;;;7.00;99.90;;;;;;5055555;28;20245;-67
2021/12/19 01:30:41;;;;;;;28.65;18.25;;;7.00;99.90;;;;;;5055920;28;20689;-67
2021/12/19 01:33:07;;;;;;;24.50;17.40;;;7.00;99.90;;;;;;5055847;28;20172;-66
2021/12/19 01:35:33;;;;;;;27.10;18.55;;;7.00;99.90;;;;;;5055442;28;20175;-67
2021/12/19 01:38:00;;;;;;;26.95;16.83;;;7.00;99.90;;;;;;5054497;28;20643;-67
2021/12/19 01:40:26;;;;;;;28.17;17.85;;;7.00;99.90;;;;;;5055627;28;20184;-67
2021/12/19 01:42:55;;;;;;;28.63;16.85;;;7.00;99.90;;;;;;5054331;28;20202;-67
2021/12/19 01:45:32;;;;;;;25.42;17.25;;;6.90;99.90;;;;;;5055531;28;20175;-67
2021/12/19 01:47:59;;;;;;;23.00;17.38;;;6.90;99.90;;;;;;5055550;28;20186;-67
2021/12/19 01:50:26;;;;;;;24.92;15.23;;;6.90;99.90;;;;;;5055341;28;20206;-66
2021/12/19 01:52:51;;;;;;;25.90;16.48;;;6.90;99.90;;;;;;5055686;28;20241;-66
2021/12/19 01:55:18;;;;;;;26.85;17.17;;;6.90;99.90;;;;;;5055284;28;20183;-67
2021/12/19 01:57:43;;;;;;;32.03;19.42;;;6.90;99.90;;;;;;5053888;28;20167;-67
2021/12/19 02:00:20;;;;;;;29.45;16.27;;;6.90;99.90;;;;;;5053996;28;20179;-67
2021/12/19 02:02:46;;;;;;;29.33;18.52;;;6.80;99.90;;;;;;5055227;28;20197;-67
2021/12/19 02:05:12;;;;;;;31.17;19.77;;;6.80;99.90;;;;;;5055186;28;20216;-67
2021/12/19 02:07:37;;;;;;;30.40;19.48;;;6.80;99.90;;;;;;5055167;28;20171;-67
2021/12/19 02:10:03;;;;;;;30.38;19.23;;;6.90;99.90;;;;;;5053845;28;20210;-66
2021/12/19 02:12:29;;;;;;;31.27;17.60;;;6.90;99.90;;;;;;5054968;28;20183;-66
2021/12/19 02:14:55;;;;;;;34.00;21.13;;;6.90;99.90;;;;;;5054738;28;21907;-66
2021/12/19 02:17:20;;;;;;;35.88;21.13;;;6.90;99.90;;;;;;5054924;28;20304;-67
2021/12/19 02:19:48;;;;;;;36.33;20.60;;;6.80;99.90;;;;;;5054599;28;20186;-67
2021/12/19 02:22:14;;;;;;;34.00;21.00;;;6.80;99.90;;;;;;5054811;28;20174;-66
2021/12/19 02:24:39;;;;;;;35.97;21.90;;;6.80;99.90;;;;;;5054712;28;20286;-66
2021/12/19 02:27:05;;;;;;;37.13;22.13;;;6.80;99.90;;;;;;5054731;28;20597;-66
2021/12/19 02:29:30;;;;;;;35.35;20.95;;;6.90;99.90;;;;;;5054295;28;20213;-67
2021/12/19 02:31:57;;;;;;;51.60;21.95;;;6.90;99.90;;;;;;5054300;28;20175;-67
2021/12/19 02:34:26;;;;;;;43.58;23.30;;;6.90;99.90;;;;;;5054583;28;20171;-67
2021/12/19 02:37:02;;;;;;;41.72;23.65;;;6.90;99.90;;;;;;5054313;28;20571;-66
2021/12/19 02:50:01;;;;;;;52.90;26.13;;;6.90;99.90;;;;;;5053805;28;20217;-67
2021/12/19 02:52:27;;;;;;;56.15;27.20;;;6.80;99.90;;;;;;5054302;28;20529;-67
2021/12/19 02:54:52;;;;;;;56.03;29.58;;;6.90;99.90;;;;;;5054155;28;20209;-67
2021/12/19 02:57:18;;;;;;;64.38;25.67;;;7.00;99.90;;;;;;5052894;28;20631;-67
2021/12/19 02:59:44;;;;;;;93.13;29.90;;;7.00;99.90;;;;;;5054155;28;20180;-67
2021/12/19 03:02:09;;;;;;;61.30;28.83;;;6.90;99.90;;;;;;5052655;28;20647;-67
2021/12/19 03:04:35;;;;;;;55.45;28.90;;;6.80;99.90;;;;;;5053725;28;20183;-66
2021/12/19 03:07:01;;;;;;;54.83;24.55;;;6.90;99.90;;;;;;5053126;28;20266;-66
2021/12/19 03:12:43;;;;;;;57.80;25.45;;;7.00;99.90;;;;;;5053983;28;20617;-67
2021/12/19 03:17:58;;;;;;;82.57;29.60;;;7.00;99.90;;;;;;5031491;28;20199;-67
2021/12/19 03:20:26;;;;;;;59.30;28.75;;;6.90;99.90;;;;;;5031595;28;20529;-65
2021/12/19 03:22:51;;;;;;;60.22;27.85;;;7.00;99.90;;;;;;5042656;28;20187;-66
2021/12/19 03:25:17;;;;;;;58.45;28.67;;;7.00;99.90;;;;;;5053951;28;20224;-67
2021/12/19 03:27:43;;;;;;;121.93;36.72;;;7.00;99.90;;;;;;5053641;28;20181;-67
2021/12/19 03:30:09;;;;;;;73.15;29.73;;;7.00;99.90;;;;;;5053543;28;20657;-67
2021/12/19 03:32:35;;;;;;;63.20;25.80;;;7.00;99.90;;;;;;5052377;28;20179;-67
2021/12/19 03:35:00;;;;;;;64.43;27.25;;;7.00;99.90;;;;;;5053281;28;20181;-66
2021/12/19 03:37:26;;;;;;;63.30;25.95;;;6.90;99.90;;;;;;5053232;28;20172;-66
2021/12/19 03:40:07;;;;;;;58.83;25.52;;;7.00;99.90;;;;;;5053510;28;20176;-67
2021/12/19 03:42:33;;;;;;;55.13;28.50;;;7.00;99.90;;;;;;5053501;28;20170;-66
2021/12/19 03:44:58;;;;;;;55.13;28.88;;;7.00;99.90;;;;;;5053071;28;20174;-67
2021/12/19 03:47:25;;;;;;;65.90;27.42;;;7.00;99.90;;;;;;5053379;28;20193;-66
2021/12/19 03:49:50;;;;;;;73.13;32.40;;;6.90;99.90;;;;;;5053425;28;20198;-67
2021/12/19 03:52:16;;;;;;;61.15;30.42;;;6.90;99.90;;;;;;5053357;28;20697;-66
2021/12/19 03:54:42;;;;;;;62.58;29.95;;;7.00;99.90;;;;;;5052056;28;20182;-67
2021/12/19 03:57:08;;;;;;;55.85;29.10;;;7.00;99.90;;;;;;5053613;28;20225;-67
2021/12/19 03:59:34;;;;;;;88.50;33.53;;;7.00;99.90;;;;;;5053293;28;20224;-67
2021/12/19 04:02:00;;;;;;;67.97;31.67;;;7.10;99.90;;;;;;5055671;28;20182;-67
2021/12/19 04:04:25;;;;;;;63.25;31.23;;;7.00;99.90;;;;;;5057327;28;20187;-66
2021/12/19 04:06:51;;;;;;;65.28;32.17;;;7.10;99.90;;;;;;5057389;28;20210;-66
2021/12/19 04:09:17;;;;;;;59.75;30.63;;;7.10;99.90;;;;;;5057283;28;20226;-66
2021/12/19 04:11:42;;;;;;;55.40;30.20;;;7.10;99.90;;;;;;5056961;28;20171;-67
2021/12/19 04:14:08;;;;;;;48.55;28.15;;;7.10;99.90;;;;;;5055924;28;20182;-66
2021/12/19 04:16:34;;;;;;;62.40;31.35;;;7.00;99.90;;;;;;5057117;28;20198;-67
2021/12/19 04:18:59;;;;;;;60.65;30.85;;;7.00;99.90;;;;;;5057409;28;20174;-66
2021/12/19 04:21:25;;;;;;;60.45;29.90;;;7.10;99.90;;;;;;5056850;28;20262;-67
2021/12/19 04:23:51;;;;;;;52.42;27.13;;;7.20;99.90;;;;;;5057064;28;20176;-66
2021/12/19 04:26:16;;;;;;;51.53;28.52;;;7.00;99.90;;;;;;5055770;28;20269;-66
2021/12/19 04:28:42;;;;;;;46.42;27.35;;;6.90;99.90;;;;;;5056879;28;20713;-67
2021/12/19 04:31:09;;;;;;;33.30;17.52;;;6.80;99.90;;;;;;5056907;28;20257;-67
2021/12/19 04:33:38;;;;;;;36.00;19.27;;;6.70;99.90;;;;;;5056870;28;20205;-66
2021/12/19 04:36:06;;;;;;;32.83;17.63;;;6.70;99.90;;;;;;5056796;28;20180;-66
2021/12/19 04:41:50;;;;;;;36.50;16.13;;;6.80;99.90;;;;;;5056551;28;20202;-66
2021/12/19 04:57:41;;;;;;;54.63;22.15;;;6.80;99.90;;;;;;5056542;28;20653;-67
2021/12/19 05:00:05;;;;;;;33.97;16.00;;;6.90;99.90;;;;;;5055806;28;20694;-67
2021/12/19 05:16:03;;;;;;;24.55;14.10;;;6.70;99.90;;;;;;5056301;28;20234;-66
2021/12/19 05:18:32;;;;;;;22.10;10.70;;;6.50;99.90;;;;;;5056103;28;20179;-66
2021/12/19 05:21:06;;;;;;;28.83;11.73;;;6.40;99.90;;;;;;5055956;28;20179;-67
2021/12/19 05:23:50;;;;;;;23.63;12.55;;;6.30;99.90;;;;;;5055695;28;20211;-66
2021/12/19 05:26:15;;;;;;;38.85;14.77;;;6.40;99.90;;;;;;5040728;28;20566;-66
2021/12/19 05:28:41;;;;;;;29.65;15.00;;;6.50;99.90;;;;;;5055805;28;20168;-67
2021/12/19 05:31:08;;;;;;;31.85;13.68;;;6.60;99.90;;;;;;5055838;28;20187;-66
2021/12/19 05:33:34;;;;;;;29.88;14.77;;;6.60;99.90;;;;;;5055699;28;20628;-67
2021/12/19 05:46:53;;;;;;;24.95;13.23;;;6.60;99.90;;;;;;5055492;28;20244;-66
2021/12/19 05:49:19;;;;;;;21.20;11.77;;;6.60;99.90;;;;;;5055124;28;20289;-67
2021/12/19 05:51:46;;;;;;;23.73;12.27;;;6.50;99.90;;;;;;5055177;28;20379;-67
2021/12/19 05:54:12;;;;;;;29.70;14.35;;;6.50;99.90;;;;;;5055390;28;20266;-65
2021/12/19 05:56:38;;;;;;;37.60;12.93;;;6.40;99.90;;;;;;5055075;28;20178;-66
2021/12/19 05:59:04;;;;;;;28.77;10.65;;;6.50;99.90;;;;;;5055354;28;20253;-66
2021/12/19 06:01:30;;;;;;;22.52;11.70;;;6.50;99.90;;;;;;5055294;28;20174;-66
2021/12/19 06:03:56;;;;;;;28.48;14.27;;;6.60;99.90;;;;;;5055190;28;20182;-67
2021/12/19 06:06:21;;;;;;;27.95;13.68;;;6.70;99.90;;;;;;5055149;28;20186;-67
2021/12/19 06:08:47;;;;;;;56.08;15.07;;;6.60;99.90;;;;;;5055020;28;20213;-66
2021/12/19 06:11:14;;;;;;;87.43;17.80;;;6.60;99.90;;;;;;5053840;28;20230;-66
2021/12/19 06:13:40;;;;;;;29.27;13.48;;;6.50;99.90;;;;;;5055007;28;20185;-66
2021/12/19 06:16:08;;;;;;;43.58;17.73;;;6.40;99.90;;;;;;5054867;28;20199;-66
2021/12/19 06:18:33;;;;;;;52.10;18.02;;;6.40;99.90;;;;;;5054867;28;20187;-66
2021/12/19 06:20:59;;;;;;;31.83;13.98;;;6.30;99.90;;;;;;5054866;28;20176;-66
2021/12/19 06:23:24;;;;;;;27.80;15.70;;;6.30;99.90;;;;;;5054449;28;20176;-66
2021/12/19 06:25:50;;;;;;;29.33;16.13;;;6.40;99.90;;;;;;5054917;28;20524;-66
2021/12/19 06:28:17;;;;;;;54.22;19.30;;;6.50;99.90;;;;;;5054710;28;20241;-66
2021/12/19 06:30:44;;;;;;;27.77;15.35;;;6.40;99.90;;;;;;5054672;28;20202;-66
2021/12/19 06:33:09;;;;;;;26.35;16.23;;;6.30;99.90;;;;;;5054696;28;20170;-66
2021/12/19 06:35:35;;;;;;;117.28;28.25;;;6.30;99.90;;;;;;5054577;28;20249;-67
2021/12/19 06:38:02;;;;;;;35.05;15.73;;;6.40;99.90;;;;;;5054563;28;20258;-66
2021/12/19 06:40:28;;;;;;;30.85;12.52;;;6.30;99.90;;;;;;5054224;28;20229;-66
2021/12/19 06:42:53;;;;;;;19.90;10.50;;;6.30;99.90;;;;;;5054494;28;20175;-66
2021/12/19 06:45:20;;;;;;;19.30;10.48;;;6.20;99.90;;;;;;5054392;28;20182;-66
2021/12/19 06:47:46;;;;;;;17.58;10.20;;;6.20;99.90;;;;;;5054021;28;20261;-67
2021/12/19 06:50:13;;;;;;;26.00;10.98;;;6.20;99.90;;;;;;5053946;28;20198;-64
2021/12/19 06:52:40;;;;;;;25.70;9.98;;;6.30;99.90;;;;;;5053137;28;20175;-66
2021/12/19 06:55:07;;;;;;;20.05;11.60;;;6.30;99.90;;;;;;5054352;28;20190;-66
2021/12/19 06:57:33;;;;;;;19.63;11.75;;;6.30;99.90;;;;;;5054176;28;20655;-67
2021/12/19 06:59:59;;;;;;;19.95;12.57;;;6.40;99.90;;;;;;5054049;28;20179;-67
2021/12/19 07:02:25;;;;;;;26.15;12.73;;;6.50;99.90;;;;;;5053925;28;20178;-66
2021/12/19 07:04:50;;;;;;;21.67;10.65;;;6.50;99.90;;;;;;5052684;28;20179;-67
2021/12/19 07:07:16;;;;;;;20.17;11.90;;;6.40;99.90;;;;;;5053810;28;20650;-67
2021/12/19 07:09:42;;;;;;;17.80;9.38;;;6.40;99.90;;;;;;5053672;28;20206;-67
2021/12/19 07:12:08;;;;;;;31.20;12.15;;;6.40;99.90;;;;;;5053415;28;20186;-67
2021/12/19 07:14:34;;;;;;;31.75;13.25;;;6.50;99.90;;;;;;5053679;28;20265;-66
2021/12/19 07:17:00;;;;;;;30.55;12.73;;;6.50;99.90;;;;;;5052832;28;20240;-65
2021/12/19 07:19:26;;;;;;;23.02;11.70;;;6.40;99.90;;;;;;5052610;28;20665;-66
2021/12/19 07:21:52;;;;;;;16.67;10.48;;;6.40;99.90;;;;;;5052734;28;20210;-66
2021/12/19 07:24:17;;;;;;;19.38;9.75;;;6.60;99.90;;;;;;5054044;28;20179;-66
2021/12/19 07:26:43;;;;;;;22.67;11.75;;;6.60;99.90;;;;;;5034881;28;20179;-67
2021/12/19 07:29:09;;;;;;;24.80;12.18;;;6.70;99.90;;;;;;5052499;28;20206;-66
2021/12/19 07:31:37;;;;;;;18.42;10.93;;;6.70;99.90;;;;;;5052394;28;20205;-67
2021/12/19 07:34:04;;;;;;;20.67;10.10;;;6.70;99.90;;;;;;5053538;28;20193;-66
2021/12/19 07:36:37;;;;;;;20.15;11.88;;;6.80;99.90;;;;;;5051510;28;20184;-66
2021/12/19 07:39:11;;;;;;;20.52;9.60;;;6.80;99.90;;;;;;5053341;28;20569;-66
2021/12/19 07:41:37;;;;;;;21.02;12.27;;;6.90;99.90;;;;;;5053600;28;20219;-66
2021/12/19 07:44:03;;;;;;;21.38;11.90;;;6.80;99.90;;;;;;5053467;28;20582;-63
2021/12/19 07:46:28;;;;;;;22.73;10.80;;;6.90;99.90;;;;;;5053525;28;20513;-64
2021/12/19 07:48:54;;;;;;;26.00;11.93;;;6.90;99.90;;;;;;5053036;28;20263;-66
2021/12/19 07:51:20;;;;;;;22.92;12.88;;;7.00;99.90;;;;;;5052126;28;20183;-66
2021/12/19 07:53:46;;;;;;;23.60;13.15;;;7.00;99.90;;;;;;5052978;28;20183;-66
2021/12/19 07:56:11;;;;;;;24.05;13.63;;;7.00;99.90;;;;;;5053178;28;20174;-66
2021/12/19 07:58:37;;;;;;;26.27;14.10;;;7.00;99.90;;;;;;5053340;28;20178;-65
2021/12/19 08:01:03;;;;;;;26.08;13.85;;;7.00;99.90;;;;;;5053293;28;20246;-66
2021/12/19 08:03:29;;;;;;;27.05;13.32;;;7.00;99.90;;;;;;5053247;28;20171;-66
2021/12/19 08:05:54;;;;;;;22.98;10.80;;;7.00;99.90;;;;;;5053265;28;20187;-67
2021/12/19 08:08:26;;;;;;;27.05;14.07;;;7.00;99.90;;;;;;5053190;28;20174;-66
2021/12/19 08:13:39;;;;;;;25.05;13.75;;;7.10;99.90;;;;;;5052962;28;20657;-66
2021/12/19 08:16:07;;;;;;;25.95;13.45;;;7.10;99.90;;;;;;5053120;28;20284;-66
2021/12/19 08:18:34;;;;;;;24.15;13.82;;;7.10;99.90;;;;;;5052992;28;20193;-66
2021/12/19 08:21:00;;;;;;;25.85;13.55;;;7.10;99.90;;;;;;5052153;28;20186;-66
2021/12/19 08:23:25;;;;;;;41.70;16.95;;;7.10;99.90;;;;;;5053079;28;20179;-66
2021/12/19 08:25:51;;;;;;;41.47;17.60;;;7.20;99.90;;;;;;5051964;28;20170;-66
2021/12/19 08:28:17;;;;;;;24.55;13.35;;;7.10;99.90;;;;;;5053065;28;20224;-66
2021/12/19 08:30:42;;;;;;;23.92;13.88;;;7.10;99.90;;;;;;5052958;28;20211;-66
2021/12/19 08:33:08;;;;;;;23.60;13.85;;;7.10;99.90;;;;;;5053465;28;20186;-67
2021/12/19 08:35:34;;;;;;;26.98;13.57;;;7.20;99.90;;;;;;5052992;28;20182;-64
2021/12/19 08:38:00;;;;;;;21.73;13.50;;;7.20;99.90;;;;;;5052730;28;20185;-64
2021/12/19 08:40:28;;;;;;;24.80;14.20;;;7.20;99.90;;;;;;5052968;28;20180;-64
2021/12/19 08:42:54;;;;;;;26.83;13.82;;;7.30;99.90;;;;;;5052965;28;20217;-64
2021/12/19 08:45:23;;;;;;;23.10;13.77;;;7.30;99.90;;;;;;5052860;28;20575;-66
2021/12/19 08:47:49;;;;;;;23.83;14.05;;;7.30;99.90;;;;;;5054790;28;20182;-63
2021/12/19 08:50:15;;;;;;;27.30;15.23;;;7.30;99.90;;;;;;5056467;28;20210;-64
2021/12/19 08:52:42;;;;;;;22.63;13.88;;;7.30;99.90;;;;;;5056553;28;20619;-64
2021/12/19 08:55:10;;;;;;;27.48;12.90;;;7.40;99.90;;;;;;5056455;28;20361;-64
2021/12/19 08:57:36;;;;;;;26.25;12.90;;;7.20;99.90;;;;;;5056445;28;20205;-64
2021/12/19 09:00:05;;;;;;;26.30;12.98;;;7.30;99.90;;;;;;5056444;28;20273;-64
2021/12/19 09:02:31;;;;;;;19.83;11.90;;;7.30;99.90;;;;;;5056292;28;20579;-64
2021/12/19 09:04:57;;;;;;;21.35;12.30;;;7.40;99.90;;;;;;5056347;28;20178;-64
2021/12/19 09:07:22;;;;;;;18.75;11.63;;;7.50;99.90;;;;;;5056325;28;20176;-64
2021/12/19 09:09:48;;;;;;;21.42;12.18;;;7.50;99.90;;;;;;5038125;28;20215;-65
2021/12/19 09:12:15;;;;;;;19.35;11.73;;;7.60;99.90;;;;;;5056176;28;20190;-63
2021/12/19 09:14:41;;;;;;;21.95;12.63;;;7.60;99.90;;;;;;5055785;28;20669;-63
2021/12/19 09:17:06;;;;;;;20.05;12.50;;;7.70;99.90;;;;;;5056239;28;20325;-63
2021/12/19 09:19:32;;;;;;;18.52;12.57;;;7.70;99.90;;;;;;5054509;28;20191;-63
2021/12/19 09:21:58;;;;;;;19.95;11.38;;;7.70;99.90;;;;;;5056054;28;20640;-63
2021/12/19 09:24:23;;;;;;;31.95;13.10;;;7.70;99.90;;;;;;5055945;28;20645;-63
2021/12/19 09:26:49;;;;;;;16.80;11.07;;;7.60;99.90;;;;;;5055971;28;20186;-65
2021/12/19 09:29:15;;;;;;;15.75;10.48;;;7.60;99.90;;;;;;5055538;28;20293;-63
2021/12/19 09:31:41;;;;;;;16.42;11.13;;;7.70;99.90;;;;;;5055846;28;20210;-64
2021/12/19 09:34:07;;;;;;;16.80;10.43;;;7.70;99.90;;;;;;5055751;28;20221;-64
2021/12/19 09:36:34;;;;;;;12.18;8.68;;;7.80;99.90;;;;;;5054875;28;20233;-64
2021/12/19 09:39:01;;;;;;;17.05;10.05;;;7.70;99.90;;;;;;5055245;28;20264;-64
2021/12/19 09:41:32;;;;;;;10.93;8.13;;;7.80;99.90;;;;;;5055802;28;20172;-63
2021/12/19 09:44:02;;;;;;;10.30;7.63;;;7.90;99.90;;;;;;5055519;28;20254;-64
2021/12/19 09:46:31;;;;;;;13.25;8.65;;;7.70;99.90;;;;;;5055594;28;20190;-64
2021/12/19 09:48:57;;;;;;;12.48;8.20;;;7.80;99.90;;;;;;5055093;28;20209;-64
2021/12/19 09:51:23;;;;;;;14.43;8.90;;;8.00;99.90;;;;;;5054091;28;20569;-64
2021/12/19 09:53:49;;;;;;;10.07;7.40;;;7.90;99.90;;;;;;5055013;28;20172;-64
2021/12/19 09:56:15;;;;;;;11.65;8.02;;;8.00;99.90;;;;;;5055154;28;20194;-64
2021/12/19 09:58:41;;;;;;;12.40;7.60;;;8.00;99.90;;;;;;5052978;28;20213;-63
2021/12/19 10:01:09;;;;;;;10.50;7.25;;;8.00;99.90;;;;;;5055036;28;20253;-66
2021/12/19 10:03:36;;;;;;;10.73;6.82;;;8.10;99.90;;;;;;5055052;28;20313;-64
2021/12/19 10:06:17;;;;;;;12.25;7.70;;;8.10;99.90;;;;;;5055126;28;20176;-61
2021/12/19 10:08:45;;;;;;;13.05;8.48;;;8.10;99.90;;;;;;5055070;28;20170;-63
2021/12/19 10:11:31;;;;;;;11.75;8.23;;;8.20;99.90;;;;;;5054929;28;20195;-61
2021/12/19 10:13:57;;;;;;;10.88;8.32;;;8.10;99.90;;;;;;5055064;28;20156;-62
2021/12/19 10:16:29;;;;;;;14.55;8.55;;;8.10;99.90;;;;;;5054625;28;20197;-62
2021/12/19 10:18:58;;;;;;;13.10;9.25;;;8.20;99.90;;;;;;5054740;28;20196;-61
2021/12/19 10:21:27;;;;;;;12.27;8.10;;;8.20;99.90;;;;;;5054524;28;20540;-61
2021/12/19 10:23:59;;;;;;;14.00;8.50;;;8.30;99.90;;;;;;5053703;28;20281;-64
2021/12/19 10:26:38;;;;;;;11.55;7.93;;;8.30;99.90;;;;;;5053673;28;20197;-62
2021/12/19 10:29:04;;;;;;;12.90;9.18;;;8.30;99.90;;;;;;5054771;28;20194;-61
2021/12/19 10:31:29;;;;;;;11.30;8.15;;;8.30;99.90;;;;;;5054718;28;20692;-62
2021/12/19 10:33:55;;;;;;;11.50;9.57;;;8.40;99.90;;;;;;5054420;28;20553;-62
2021/12/19 10:36:21;;;;;;;10.90;8.18;;;8.40;99.90;;;;;;5053305;28;20206;-62
2021/12/19 10:38:49;;;;;;;10.23;7.75;;;8.40;99.90;;;;;;5054565;28;20625;-62
2021/12/19 10:41:25;;;;;;;12.45;8.38;;;8.50;99.90;;;;;;5054298;28;20636;-61
2021/12/19 10:44:03;;;;;;;11.77;7.68;;;8.50;99.90;;;;;;5054518;28;20159;-64
2021/12/19 10:46:32;;;;;;;10.43;7.88;;;8.50;99.90;;;;;;5054141;28;20175;-62
2021/12/19 10:48:58;;;;;;;9.20;7.68;;;8.40;99.90;;;;;;5052791;28;20226;-62
2021/12/19 10:51:25;;;;;;;10.32;7.63;;;8.50;99.90;;;;;;5054332;28;20266;-62
2021/12/19 10:54:00;;;;;;;12.57;7.82;;;8.40;99.90;;;;;;5054626;28;20636;-62
2021/12/19 10:56:32;;;;;;;7.68;5.90;;;8.40;99.90;;;;;;5054185;28;20175;-62
2021/12/19 10:59:03;;;;;;;7.60;6.80;;;8.30;99.90;;;;;;5053889;28;20575;-62
2021/12/19 11:01:35;;;;;;;8.50;6.80;;;8.30;99.90;;;;;;5051845;28;20177;-62
2021/12/19 11:04:15;;;;;;;7.63;6.20;;;8.30;99.90;;;;;;5054039;28;20179;-61
2021/12/19 11:06:46;;;;;;;8.35;6.40;;;8.20;99.90;;;;;;5052823;28;20186;-62
2021/12/19 11:09:17;;;;;;;7.93;5.82;;;8.20;99.90;;;;;;5053939;28;20218;-62
2021/12/19 11:11:48;;;;;;;6.65;5.70;;;8.20;99.90;;;;;;5053818;28;20525;-62
2021/12/19 11:14:19;;;;;;;7.60;6.35;;;8.00;99.90;;;;;;5053876;28;20206;-62
2021/12/19 11:16:46;;;;;;;8.05;6.53;;;7.90;99.90;;;;;;5053509;28;20616;-62
2021/12/19 11:19:11;;;;;;;8.93;7.05;;;7.90;99.90;;;;;;5053704;28;20536;-62
2021/12/19 11:21:38;;;;;;;8.32;6.93;;;8.00;99.90;;;;;;5053794;28;20183;-62
2021/12/19 11:24:08;;;;;;;9.63;7.72;;;8.20;99.90;;;;;;5053763;28;20178;-62
2021/12/19 11:26:37;;;;;;;9.57;7.68;;;8.30;99.90;;;;;;5052468;28;20217;-62
2021/12/19 11:29:04;;;;;;;7.20;6.45;;;8.30;99.90;;;;;;5053599;28;20210;-62
2021/12/19 11:31:31;;;;;;;6.60;5.90;;;8.20;99.90;;;;;;5053693;28;20171;-62
2021/12/19 11:33:57;;;;;;;9.00;6.25;;;8.10;99.90;;;;;;5052285;28;20632;-62
2021/12/19 11:36:24;;;;;;;6.65;5.85;;;8.10;99.90;;;;;;5053257;28;20186;-62
2021/12/19 11:38:51;;;;;;;7.57;6.68;;;8.10;99.90;;;;;;5053337;28;20186;-62
2021/12/19 11:41:17;;;;;;;5.97;5.38;;;8.00;99.90;;;;;;5053494;28;20175;-62
2021/12/19 11:43:44;;;;;;;6.05;5.50;;;8.00;99.90;;;;;;5053215;28;20225;-62
2021/12/19 11:46:16;;;;;;;4.30;3.90;;;7.90;99.90;;;;;;5053078;28;20186;-62
2021/12/19 11:48:42;;;;;;;4.43;3.70;;;7.80;99.90;;;;;;5053180;28;20709;-62
2021/12/19 11:51:18;;;;;;;5.25;3.85;;;7.80;99.90;;;;;;5053336;28;20203;-62
2021/12/19 11:53:44;;;;;;;2.20;1.98;;;7.80;99.90;;;;;;5053391;28;20524;-62
2021/12/19 11:56:16;;;;;;;2.28;2.17;;;7.80;99.90;;;;;;5053035;28;20209;-62
2021/12/19 11:58:50;;;;;;;2.30;2.10;;;7.80;99.90;;;;;;5053289;28;20166;-62
2021/12/19 12:01:27;;;;;;;2.00;1.90;;;7.70;99.90;;;;;;5053362;28;20663;-62
2021/12/19 12:04:13;;;;;;;1.70;1.60;;;7.70;99.90;;;;;;5053255;28;20568;-63
2021/12/19 12:06:43;;;;;;;2.50;2.30;;;7.70;99.90;;;;;;5052633;28;20187;-64
2021/12/19 12:09:22;;;;;;;2.08;1.88;;;7.80;99.90;;;;;;5052186;28;20684;-64
2021/12/19 12:12:09;;;;;;;1.73;1.63;;;8.00;99.90;;;;;;5052955;28;20163;-65
2021/12/19 12:14:42;;;;;;;1.60;1.50;;;7.90;99.90;;;;;;5053168;28;20163;-64
2021/12/19 12:17:19;;;;;;;1.60;1.50;;;7.90;99.90;;;;;;5052838;28;20678;-64
2021/12/19 12:19:55;;;;;;;1.52;1.42;;;8.10;99.90;;;;;;5053714;28;20167;-64
2021/12/19 12:22:47;;;;;;;1.67;1.58;;;8.00;99.90;;;;;;5054717;28;20163;-65
2021/12/19 12:25:15;;;;;;;1.50;1.40;;;8.10;99.90;;;;;;5057139;28;20543;-65
2021/12/19 12:27:52;;;;;;;1.30;1.20;;;8.10;99.90;;;;;;5056990;28;20179;-64
2021/12/19 12:30:30;;;;;;;1.38;1.00;;;8.20;99.90;;;;;;5056791;28;20233;-64
2021/12/19 12:33:00;;;;;;;2.13;1.23;;;8.20;99.90;;;;;;5056838;28;20680;-64
2021/12/19 12:35:28;;;;;;;1.40;1.30;;;8.20;99.90;;;;;;5056985;28;20186;-64
2021/12/19 12:37:54;;;;;;;1.90;1.80;;;8.20;99.90;;;;;;5056843;28;20175;-64
2021/12/19 12:40:49;;;;;;;3.83;2.38;;;8.10;99.90;;;;;;5056811;28;20524;-65
2021/12/19 12:43:45;;;;;;;2.88;2.58;;;8.10;99.90;;;;;;5056835;28;20167;-64
2021/12/19 12:46:15;;;;;;;2.50;2.30;;;8.20;99.90;;;;;;5052031;28;20198;-64
2021/12/19 12:48:57;;;;;;;2.35;2.03;;;8.20;99.90;;;;;;5056704;28;20171;-64
2021/12/19 12:51:38;;;;;;;2.40;2.20;;;8.30;99.90;;;;;;5055989;28;20527;-65
2021/12/19 12:54:09;;;;;;;2.42;2.22;;;8.30;99.90;;;;;;5057214;28;20179;-64
2021/12/19 12:56:45;;;;;;;2.80;2.60;;;8.20;99.90;;;;;;5056722;28;20166;-64
2021/12/19 12:59:13;;;;;;;2.78;2.58;;;8.10;99.90;;;;;;5056527;28;20306;-64
2021/12/19 13:01:42;;;;;;;2.90;2.70;;;8.20;99.90;;;;;;5056395;28;20176;-64
2021/12/19 13:04:15;;;;;;;3.30;3.00;;;8.10;99.90;;;;;;5056011;28;20644;-64
2021/12/19 13:06:55;;;;;;;3.20;2.90;;;8.20;99.90;;;;;;5056408;28;20163;-65
2021/12/19 13:09:51;;;;;;;3.40;3.00;;;8.40;99.90;;;;;;5056480;28;20232;-64
2021/12/19 13:12:19;;;;;;;3.83;3.53;;;8.30;99.90;;;;;;5055981;28;20195;-65
2021/12/19 13:14:48;;;;;;;4.43;4.03;;;8.40;99.90;;;;;;5056032;28;20270;-65
2021/12/19 13:17:15;;;;;;;2.80;2.60;;;8.50;99.90;;;;;;5056530;28;20229;-64
2021/12/19 13:19:51;;;;;;;2.75;2.55;;;8.40;99.90;;;;;;5055778;28;20694;-64
2021/12/19 13:22:21;;;;;;;3.00;2.63;;;8.50;99.90;;;;;;5056279;28;20163;-65
2021/12/19 13:24:49;;;;;;;2.60;2.40;;;8.50;99.90;;;;;;5056117;28;20221;-65
2021/12/19 13:27:22;;;;;;;2.20;2.00;;;8.40;99.90;;;;;;5055684;28;20625;-65
2021/12/19 13:30:06;;;;;;;2.70;2.40;;;8.30;99.90;;;;;;5055846;28;20636;-64
2021/12/19 13:32:43;;;;;;;2.63;2.40;;;8.30;99.90;;;;;;5055818;28;20579;-65
2021/12/19 13:35:21;;;;;;;2.25;2.08;;;8.30;99.90;;;;;;5054688;28;20615;-65
2021/12/19 13:38:05;;;;;;;2.28;2.17;;;8.30;99.90;;;;;;5055631;28;20565;-64
2021/12/19 13:40:34;;;;;;;3.25;2.47;;;8.20;99.90;;;;;;5055734;28;20170;-65
2021/12/19 13:43:02;;;;;;;2.65;2.45;;;8.30;99.90;;;;;;5055645;28;20174;-64
2021/12/19 13:45:42;;;;;;;2.13;1.92;;;8.30;99.90;;;;;;5055722;28;20585;-65
2021/12/19 13:48:48;;;;;;;2.40;2.20;;;8.20;99.90;;;;;;5055622;28;20159;-65
2021/12/19 13:51:17;;;;;;;2.40;2.13;;;8.10;99.90;;;;;;5055736;28;20187;-65
2021/12/19 13:53:45;;;;;;;2.58;2.38;;;8.10;99.90;;;;;;5055439;28;20245;-65